sensor_id;sensor_type;location;lat;lon;timestamp;temperature;humidity
14097;DHT22;7125;48.106;11.544;2023-05-02T00:00:55;9.40;99.90
14097;DHT22;7125;48.106;11.544;2023-05-02T00:03:23;9.40;99.90
14097;DHT22;7125;48.106;11.544;2023-05-02T00:05:51;9.40;99.90
14097;DHT22;7125;48.106;11.544;2023-05-02T00:08:19;9.40;99.90
14097;DHT22;7125;48.106;11.544;2023-05-02T00:10:46;9.40;99.90
14097;DHT22;7125;48.106;11.544;2023-05-02T00:13:13;9.40;99.90
14097;DHT22;7125;48.106;11.544;2023-05-02T00:15:40;9.40;99.90
14097;DHT22;7125;48.106;11.544;2023-05-02T00:18:07;9.40;99.90
14097;DHT22;7125;48.106;11.544;2023-05-02T00:20:34;9.40;99.90
14097;DHT22;7125;48.106;11.544;2023-05-02T00:23:01;9.40;99.90
14097;DHT22;7125;48.106;11.544;2023-05-02T00:25:29;9.40;99.90
14097;DHT22;7125;48.106;11.544;2023-05-02T00:27:56;9.40;99.90
14097;DHT22;7125;48.106;11.544;2023-05-02T00:30:23;9.30;99.90
14097;DHT22;7125;48.106;11.544;2023-05-02T00:32:50;9.30;99.90
14097;DHT22;7125;48.106;11.544;2023-05-02T00:35:18;9.30;99.90
14097;DHT22;7125;48.106;11.544;2023-05-02T00:37:45;9.30;99.90
14097;DHT22;7125;48.106;11.544;2023-05-02T00:40:13;9.20;99.90
14097;DHT22;7125;48.106;11.544;2023-05-02T00:42:41;9.20;99.90
14097;DHT22;7125;48.106;11.544;2023-05-02T00:45:09;9.20;99.90
14097;DHT22;7125;48.106;11.544;2023-05-02T00:47:36;9.20;99.90
14097;DHT22;7125;48.106;11.544;2023-05-02T00:50:05;9.20;99.90
14097;DHT22;7125;48.106;11.544;2023-05-02T00:52:32;9.20;99.90
14097;DHT22;7125;48.106;11.544;2023-05-02T00:55:00;9.10;99.90
14097;DHT22;7125;48.106;11.544;2023-05-02T00:57:28;9.10;99.90
14097;DHT22;7125;48.106;11.544;2023-05-02T00:59:56;9.10;99.90
14097;DHT22;7125;48.106;11.544;2023-05-02T01:02:34;9.10;99.90
14097;DHT22;7125;48.106;11.544;2023-05-02T01:05:10;9.10;99.90
14097;DHT22;7125;48.106;11.544;2023-05-02T01:08:00;9.00;99.90
14097;DHT22;7125;48.106;11.544;2023-05-02T01:10:34;9.00;99.90
14097;DHT22;7125;48.106;11.544;2023-05-02T01:13:07;9.00;99.90
14097;DHT22;7125;48.106;11.544;2023-05-02T01:15:37;9.00;99.90
14097;DHT22;7125;48.106;11.544;2023-05-02T01:18:08;9.00;99.90
14097;DHT22;7125;48.106;11.544;2023-05-02T01:20:38;9.00;99.90
14097;DHT22;7125;48.106;11.544;2023-05-02T01:23:13;8.90;99.90
14097;DHT22;7125;48.106;11.544;2023-05-02T01:25:52;8.90;99.90
14097;DHT22;7125;48.106;11.544;2023-05-02T01:28:30;8.90;99.90
14097;DHT22;7125;48.106;11.544;2023-05-02T01:31:04;8.90;99.90
14097;DHT22;7125;48.106;11.544;2023-05-02T01:33:33;8.80;99.90
14097;DHT22;7125;48.106;11.544;2023-05-02T01:36:03;8.80;99.90
14097;DHT22;7125;48.106;11.544;2023-05-02T01:38:32;8.80;99.90
14097;DHT22;7125;48.106;11.544;2023-05-02T01:41:01;8.80;99.90
14097;DHT22;7125;48.106;11.544;2023-05-02T01:43:32;8.70;99.90
14097;DHT22;7125;48.106;11.544;2023-05-02T01:46:01;8.70;99.90
14097;DHT22;7125;48.106;11.544;2023-05-02T01:48:34;8.70;99.90
14097;DHT22;7125;48.106;11.544;2023-05-02T01:51:02;8.70;99.90
14097;DHT22;7125;48.106;11.544;2023-05-02T01:53:32;8.70;99.90
14097;DHT22;7125;48.106;11.544;2023-05-02T01:56:02;8.70;99.90
14097;DHT22;7125;48.106;11.544;2023-05-02T01:58:30;8.70;99.90
14097;DHT22;7125;48.106;11.544;2023-05-02T02:01:00;8.70;99.90
14097;DHT22;7125;48.106;11.544;2023-05-02T02:03:30;8.70;99.90
14097;DHT22;7125;48.106;11.544;2023-05-02T02:05:58;8.70;99.90
14097;DHT22;7125;48.106;11.544;2023-05-02T02:08:26;8.70;99.90
14097;DHT22;7125;48.106;11.544;2023-05-02T02:10:57;8.60;99.90
14097;DHT22;7125;48.106;11.544;2023-05-02T02:13:27;8.60;99.90
14097;DHT22;7125;48.106;11.544;2023-05-02T02:15:59;8.70;99.90
14097;DHT22;7125;48.106;11.544;2023-05-02T02:18:31;8.60;99.90
14097;DHT22;7125;48.106;11.544;2023-05-02T02:21:01;8.60;99.90
14097;DHT22;7125;48.106;11.544;2023-05-02T02:23:29;8.60;99.90
14097;DHT22;7125;48.106;11.544;2023-05-02T02:26:00;8.60;99.90
14097;DHT22;7125;48.106;11.544;2023-05-02T02:28:27;8.60;99.90
14097;DHT22;7125;48.106;11.544;2023-05-02T02:30:54;8.60;99.90
14097;DHT22;7125;48.106;11.544;2023-05-02T02:33:26;8.60;99.90
14097;DHT22;7125;48.106;11.544;2023-05-02T02:36:04;8.60;99.90
14097;DHT22;7125;48.106;11.544;2023-05-02T02:38:37;8.60;99.90
14097;DHT22;7125;48.106;11.544;2023-05-02T02:41:12;8.60;99.90
14097;DHT22;7125;48.106;11.544;2023-05-02T02:43:47;8.60;99.90
14097;DHT22;7125;48.106;11.544;2023-05-02T02:46:28;8.60;99.90
14097;DHT22;7125;48.106;11.544;2023-05-02T02:49:04;8.60;99.90
14097;DHT22;7125;48.106;11.544;2023-05-02T02:51:44;8.60;99.90
14097;DHT22;7125;48.106;11.544;2023-05-02T02:54:16;8.60;99.90
14097;DHT22;7125;48.106;11.544;2023-05-02T02:56:48;8.60;99.90
14097;DHT22;7125;48.106;11.544;2023-05-02T02:59:22;8.60;99.90
14097;DHT22;7125;48.106;11.544;2023-05-02T03:01:58;8.60;99.90
14097;DHT22;7125;48.106;11.544;2023-05-02T03:04:29;8.60;99.90
14097;DHT22;7125;48.106;11.544;2023-05-02T03:06:59;8.60;99.90
14097;DHT22;7125;48.106;11.544;2023-05-02T03:09:26;8.60;99.90
14097;DHT22;7125;48.106;11.544;2023-05-02T03:11:58;8.60;99.90
14097;DHT22;7125;48.106;11.544;2023-05-02T03:14:26;8.60;99.90
14097;DHT22;7125;48.106;11.544;2023-05-02T03:16:53;8.60;99.90
14097;DHT22;7125;48.106;11.544;2023-05-02T03:19:21;8.60;99.90
14097;DHT22;7125;48.106;11.544;2023-05-02T03:21:48;8.60;99.90
14097;DHT22;7125;48.106;11.544;2023-05-02T03:24:22;8.60;99.90
14097;DHT22;7125;48.106;11.544;2023-05-02T03:26:54;8.60;99.90
14097;DHT22;7125;48.106;11.544;2023-05-02T03:29:33;8.60;99.90
14097;DHT22;7125;48.106;11.544;2023-05-02T03:32:01;8.60;99.90
14097;DHT22;7125;48.106;11.544;2023-05-02T03:34:28;8.60;99.90
14097;DHT22;7125;48.106;11.544;2023-05-02T03:36:56;8.50;99.90
14097;DHT22;7125;48.106;11.544;2023-05-02T03:39:27;8.50;99.90
14097;DHT22;7125;48.106;11.544;2023-05-02T03:41:54;8.40;99.90
14097;DHT22;7125;48.106;11.544;2023-05-02T03:44:23;8.40;99.90
14097;DHT22;7125;48.106;11.544;2023-05-02T03:46:52;8.40;99.90
14097;DHT22;7125;48.106;11.544;2023-05-02T03:49:19;8.30;99.90
14097;DHT22;7125;48.106;11.544;2023-05-02T03:51:51;8.30;99.90
14097;DHT22;7125;48.106;11.544;2023-05-02T03:54:30;8.30;99.90
14097;DHT22;7125;48.106;11.544;2023-05-02T03:56:58;8.20;99.90
14097;DHT22;7125;48.106;11.544;2023-05-02T03:59:32;8.20;99.90
14097;DHT22;7125;48.106;11.544;2023-05-02T04:02:07;8.10;99.90
14097;DHT22;7125;48.106;11.544;2023-05-02T04:04:44;8.10;99.90
14097;DHT22;7125;48.106;11.544;2023-05-02T04:07:17;8.10;99.90
14097;DHT22;7125;48.106;11.544;2023-05-02T04:09:49;8.10;99.90
14097;DHT22;7125;48.106;11.544;2023-05-02T04:12:16;8.00;99.90
14097;DHT22;7125;48.106;11.544;2023-05-02T04:14:47;8.00;99.90
14097;DHT22;7125;48.106;11.544;2023-05-02T04:17:14;8.00;99.90
14097;DHT22;7125;48.106;11.544;2023-05-02T04:19:47;8.00;99.90
14097;DHT22;7125;48.106;11.544;2023-05-02T04:22:17;8.00;99.90
14097;DHT22;7125;48.106;11.544;2023-05-02T04:24:52;8.00;99.90
14097;DHT22;7125;48.106;11.544;2023-05-02T04:27:20;8.00;99.90
14097;DHT22;7125;48.106;11.544;2023-05-02T04:29:47;8.00;99.90
14097;DHT22;7125;48.106;11.544;2023-05-02T04:32:15;8.10;99.90
14097;DHT22;7125;48.106;11.544;2023-05-02T04:34:43;8.10;99.90
14097;DHT22;7125;48.106;11.544;2023-05-02T04:37:10;8.10;99.90
14097;DHT22;7125;48.106;11.544;2023-05-02T04:39:38;8.20;99.90
14097;DHT22;7125;48.106;11.544;2023-05-02T04:42:12;8.20;99.90
14097;DHT22;7125;48.106;11.544;2023-05-02T04:44:47;8.30;99.90
14097;DHT22;7125;48.106;11.544;2023-05-02T04:47:15;8.30;99.90
14097;DHT22;7125;48.106;11.544;2023-05-02T04:49:43;8.30;99.90
14097;DHT22;7125;48.106;11.544;2023-05-02T04:52:10;8.40;99.90
14097;DHT22;7125;48.106;11.544;2023-05-02T04:54:38;8.40;99.90
14097;DHT22;7125;48.106;11.544;2023-05-02T04:57:05;8.50;99.90
14097;DHT22;7125;48.106;11.544;2023-05-02T04:59:38;8.50;99.90
14097;DHT22;7125;48.106;11.544;2023-05-02T05:02:06;8.60;99.90
14097;DHT22;7125;48.106;11.544;2023-05-02T05:04:34;8.60;99.90
14097;DHT22;7125;48.106;11.544;2023-05-02T05:07:01;8.60;99.90
14097;DHT22;7125;48.106;11.544;2023-05-02T05:09:29;8.70;99.90
14097;DHT22;7125;48.106;11.544;2023-05-02T05:11:56;8.70;99.90
14097;DHT22;7125;48.106;11.544;2023-05-02T05:14:23;8.80;99.90
14097;DHT22;7125;48.106;11.544;2023-05-02T05:16:54;8.90;99.90
14097;DHT22;7125;48.106;11.544;2023-05-02T05:19:22;8.90;99.90
14097;DHT22;7125;48.106;11.544;2023-05-02T05:21:50;8.90;99.90
14097;DHT22;7125;48.106;11.544;2023-05-02T05:24:18;9.00;99.90
14097;DHT22;7125;48.106;11.544;2023-05-02T05:26:46;9.00;99.90
14097;DHT22;7125;48.106;11.544;2023-05-02T05:29:13;9.10;99.90
14097;DHT22;7125;48.106;11.544;2023-05-02T05:31:41;9.10;99.90
14097;DHT22;7125;48.106;11.544;2023-05-02T05:34:12;9.20;99.90
14097;DHT22;7125;48.106;11.544;2023-05-02T05:36:41;9.20;99.90
14097;DHT22;7125;48.106;11.544;2023-05-02T05:39:08;9.20;99.90
14097;DHT22;7125;48.106;11.544;2023-05-02T05:41:37;9.30;99.90
14097;DHT22;7125;48.106;11.544;2023-05-02T05:44:08;9.30;99.90
14097;DHT22;7125;48.106;11.544;2023-05-02T05:46:35;9.30;99.90
14097;DHT22;7125;48.106;11.544;2023-05-02T05:49:04;9.40;99.90
14097;DHT22;7125;48.106;11.544;2023-05-02T05:51:33;9.40;99.90
14097;DHT22;7125;48.106;11.544;2023-05-02T05:54:01;9.50;99.90
14097;DHT22;7125;48.106;11.544;2023-05-02T05:56:28;9.60;99.90
14097;DHT22;7125;48.106;11.544;2023-05-02T05:59:05;9.60;99.90
14097;DHT22;7125;48.106;11.544;2023-05-02T06:01:32;9.70;99.90
14097;DHT22;7125;48.106;11.544;2023-05-02T06:04:01;9.70;99.90
14097;DHT22;7125;48.106;11.544;2023-05-02T06:06:29;9.70;99.90
14097;DHT22;7125;48.106;11.544;2023-05-02T06:08:58;9.70;99.90
14097;DHT22;7125;48.106;11.544;2023-05-02T06:11:25;9.70;99.90
14097;DHT22;7125;48.106;11.544;2023-05-02T06:13:52;9.80;99.90
14097;DHT22;7125;48.106;11.544;2023-05-02T06:16:21;9.80;99.90
14097;DHT22;7125;48.106;11.544;2023-05-02T06:18:49;9.90;99.90
14097;DHT22;7125;48.106;11.544;2023-05-02T06:21:16;10.00;99.90
14097;DHT22;7125;48.106;11.544;2023-05-02T06:23:43;10.00;99.90
14097;DHT22;7125;48.106;11.544;2023-05-02T06:26:11;10.10;99.90
14097;DHT22;7125;48.106;11.544;2023-05-02T06:28:40;10.20;99.90
14097;DHT22;7125;48.106;11.544;2023-05-02T06:31:07;10.30;99.90
14097;DHT22;7125;48.106;11.544;2023-05-02T06:33:34;10.30;99.90
14097;DHT22;7125;48.106;11.544;2023-05-02T06:36:02;10.40;99.90
14097;DHT22;7125;48.106;11.544;2023-05-02T06:38:28;10.40;99.90
14097;DHT22;7125;48.106;11.544;2023-05-02T06:40:57;10.50;99.90
14097;DHT22;7125;48.106;11.544;2023-05-02T06:43:26;10.50;99.90
14097;DHT22;7125;48.106;11.544;2023-05-02T06:45:54;10.50;99.90
14097;DHT22;7125;48.106;11.544;2023-05-02T06:48:21;10.60;99.90
14097;DHT22;7125;48.106;11.544;2023-05-02T06:50:48;10.60;99.90
14097;DHT22;7125;48.106;11.544;2023-05-02T06:53:15;10.70;99.90
14097;DHT22;7125;48.106;11.544;2023-05-02T06:55:42;10.70;99.90
14097;DHT22;7125;48.106;11.544;2023-05-02T06:58:09;10.80;99.90
14097;DHT22;7125;48.106;11.544;2023-05-02T07:00:38;10.90;99.90
14097;DHT22;7125;48.106;11.544;2023-05-02T07:03:05;11.00;99.90
14097;DHT22;7125;48.106;11.544;2023-05-02T07:05:32;11.10;99.90
14097;DHT22;7125;48.106;11.544;2023-05-02T07:07:59;11.20;99.90
14097;DHT22;7125;48.106;11.544;2023-05-02T07:10:26;11.30;99.90
14097;DHT22;7125;48.106;11.544;2023-05-02T07:12:53;11.30;99.90
14097;DHT22;7125;48.106;11.544;2023-05-02T07:15:20;11.30;99.90
14097;DHT22;7125;48.106;11.544;2023-05-02T07:17:48;11.30;99.90
14097;DHT22;7125;48.106;11.544;2023-05-02T07:20:15;11.30;99.90
14097;DHT22;7125;48.106;11.544;2023-05-02T07:22:42;11.40;99.90
14097;DHT22;7125;48.106;11.544;2023-05-02T07:25:09;11.50;99.90
14097;DHT22;7125;48.106;11.544;2023-05-02T07:27:36;11.50;99.90
14097;DHT22;7125;48.106;11.544;2023-05-02T07:30:04;11.60;99.90
14097;DHT22;7125;48.106;11.544;2023-05-02T07:32:31;11.60;99.90
14097;DHT22;7125;48.106;11.544;2023-05-02T07:35:00;11.50;99.90
14097;DHT22;7125;48.106;11.544;2023-05-02T07:37:31;11.50;99.90
14097;DHT22;7125;48.106;11.544;2023-05-02T07:39:58;11.50;99.90
14097;DHT22;7125;48.106;11.544;2023-05-02T07:42:28;11.50;99.90
14097;DHT22;7125;48.106;11.544;2023-05-02T07:44:54;11.60;99.90
14097;DHT22;7125;48.106;11.544;2023-05-02T07:47:22;11.60;99.90
14097;DHT22;7125;48.106;11.544;2023-05-02T07:49:54;11.60;99.90
14097;DHT22;7125;48.106;11.544;2023-05-02T07:52:22;11.60;99.90
14097;DHT22;7125;48.106;11.544;2023-05-02T07:54:50;11.60;99.90
14097;DHT22;7125;48.106;11.544;2023-05-02T07:57:17;11.60;99.90
14097;DHT22;7125;48.106;11.544;2023-05-02T07:59:44;11.60;99.90
14097;DHT22;7125;48.106;11.544;2023-05-02T08:02:11;11.60;99.90
14097;DHT22;7125;48.106;11.544;2023-05-02T08:04:38;11.60;99.90
14097;DHT22;7125;48.106;11.544;2023-05-02T08:07:05;11.60;99.90
14097;DHT22;7125;48.106;11.544;2023-05-02T08:09:34;11.70;99.90
14097;DHT22;7125;48.106;11.544;2023-05-02T08:12:01;11.80;99.90
14097;DHT22;7125;48.106;11.544;2023-05-02T08:14:28;11.90;99.90
14097;DHT22;7125;48.106;11.544;2023-05-02T08:16:55;12.10;99.90
14097;DHT22;7125;48.106;11.544;2023-05-02T08:19:22;12.20;99.90
14097;DHT22;7125;48.106;11.544;2023-05-02T08:21:49;12.30;99.90
14097;DHT22;7125;48.106;11.544;2023-05-02T08:24:18;12.40;99.90
14097;DHT22;7125;48.106;11.544;2023-05-02T08:26:47;12.70;99.90
14097;DHT22;7125;48.106;11.544;2023-05-02T08:29:14;12.80;99.90
14097;DHT22;7125;48.106;11.544;2023-05-02T08:31:41;12.90;99.90
14097;DHT22;7125;48.106;11.544;2023-05-02T08:34:08;12.90;99.90
14097;DHT22;7125;48.106;11.544;2023-05-02T08:36:35;13.00;99.90
14097;DHT22;7125;48.106;11.544;2023-05-02T08:39:05;13.00;99.90
14097;DHT22;7125;48.106;11.544;2023-05-02T08:41:34;13.10;99.90
14097;DHT22;7125;48.106;11.544;2023-05-02T08:44:04;13.10;99.90
14097;DHT22;7125;48.106;11.544;2023-05-02T08:46:34;13.10;99.90
14097;DHT22;7125;48.106;11.544;2023-05-02T08:49:02;13.20;99.90
14097;DHT22;7125;48.106;11.544;2023-05-02T08:51:29;13.40;99.90
14097;DHT22;7125;48.106;11.544;2023-05-02T08:53:57;13.50;99.90
14097;DHT22;7125;48.106;11.544;2023-05-02T08:56:24;13.70;99.90
14097;DHT22;7125;48.106;11.544;2023-05-02T08:58:51;13.70;99.90
14097;DHT22;7125;48.106;11.544;2023-05-02T09:01:22;13.80;99.90
14097;DHT22;7125;48.106;11.544;2023-05-02T09:03:49;13.80;99.90
14097;DHT22;7125;48.106;11.544;2023-05-02T09:06:17;13.90;99.90
14097;DHT22;7125;48.106;11.544;2023-05-02T09:08:46;13.90;99.90
14097;DHT22;7125;48.106;11.544;2023-05-02T09:11:15;13.90;99.90
14097;DHT22;7125;48.106;11.544;2023-05-02T09:13:43;13.90;99.90
14097;DHT22;7125;48.106;11.544;2023-05-02T09:16:12;14.00;99.90
14097;DHT22;7125;48.106;11.544;2023-05-02T09:18:42;14.00;99.90
14097;DHT22;7125;48.106;11.544;2023-05-02T09:21:12;14.10;99.90
14097;DHT22;7125;48.106;11.544;2023-05-02T09:23:41;14.20;99.90
14097;DHT22;7125;48.106;11.544;2023-05-02T09:26:13;14.30;99.90
14097;DHT22;7125;48.106;11.544;2023-05-02T09:28:42;14.30;99.90
14097;DHT22;7125;48.106;11.544;2023-05-02T09:31:10;14.30;99.90
14097;DHT22;7125;48.106;11.544;2023-05-02T09:33:38;14.40;99.90
14097;DHT22;7125;48.106;11.544;2023-05-02T09:36:08;14.40;99.90
14097;DHT22;7125;48.106;11.544;2023-05-02T09:38:35;14.50;99.90
14097;DHT22;7125;48.106;11.544;2023-05-02T09:41:02;14.60;99.90
14097;DHT22;7125;48.106;11.544;2023-05-02T09:43:30;14.60;99.90
14097;DHT22;7125;48.106;11.544;2023-05-02T09:45:58;14.70;99.90
14097;DHT22;7125;48.106;11.544;2023-05-02T09:48:26;14.90;99.90
14097;DHT22;7125;48.106;11.544;2023-05-02T09:50:54;15.00;99.90
14097;DHT22;7125;48.106;11.544;2023-05-02T09:53:24;15.10;99.90
14097;DHT22;7125;48.106;11.544;2023-05-02T09:56:02;15.10;99.90
14097;DHT22;7125;48.106;11.544;2023-05-02T09:58:29;15.10;99.90
14097;DHT22;7125;48.106;11.544;2023-05-02T10:00:57;15.20;99.90
14097;DHT22;7125;48.106;11.544;2023-05-02T10:03:25;15.10;99.90
14097;DHT22;7125;48.106;11.544;2023-05-02T10:05:53;15.10;99.90
14097;DHT22;7125;48.106;11.544;2023-05-02T10:08:26;15.20;99.90
14097;DHT22;7125;48.106;11.544;2023-05-02T10:10:55;15.20;99.90
14097;DHT22;7125;48.106;11.544;2023-05-02T10:13:24;15.10;99.90
14097;DHT22;7125;48.106;11.544;2023-05-02T10:16:00;15.10;99.90
14097;DHT22;7125;48.106;11.544;2023-05-02T10:18:28;15.10;99.90
14097;DHT22;7125;48.106;11.544;2023-05-02T10:21:03;15.10;99.90
14097;DHT22;7125;48.106;11.544;2023-05-02T10:23:32;15.00;99.90
14097;DHT22;7125;48.106;11.544;2023-05-02T10:26:00;15.00;99.90
14097;DHT22;7125;48.106;11.544;2023-05-02T10:28:29;15.00;99.90
14097;DHT22;7125;48.106;11.544;2023-05-02T10:30:57;15.10;99.90
14097;DHT22;7125;48.106;11.544;2023-05-02T10:33:27;15.20;99.90
14097;DHT22;7125;48.106;11.544;2023-05-02T10:35:56;15.30;99.90
14097;DHT22;7125;48.106;11.544;2023-05-02T10:38:23;15.30;99.90
14097;DHT22;7125;48.106;11.544;2023-05-02T10:40:59;15.40;99.90
14097;DHT22;7125;48.106;11.544;2023-05-02T10:43:30;15.50;99.90
14097;DHT22;7125;48.106;11.544;2023-05-02T10:45:58;15.60;99.90
14097;DHT22;7125;48.106;11.544;2023-05-02T10:48:26;15.70;99.90
14097;DHT22;7125;48.106;11.544;2023-05-02T10:50:54;15.80;99.90
14097;DHT22;7125;48.106;11.544;2023-05-02T10:53:32;15.80;99.90
14097;DHT22;7125;48.106;11.544;2023-05-02T10:56:23;15.90;99.90
14097;DHT22;7125;48.106;11.544;2023-05-02T10:58:51;15.90;99.90
14097;DHT22;7125;48.106;11.544;2023-05-02T11:01:34;15.80;99.90
14097;DHT22;7125;48.106;11.544;2023-05-02T11:04:04;15.60;99.90
14097;DHT22;7125;48.106;11.544;2023-05-02T11:06:32;15.30;99.90
14097;DHT22;7125;48.106;11.544;2023-05-02T11:09:30;14.90;99.90
14097;DHT22;7125;48.106;11.544;2023-05-02T11:12:00;14.60;99.90
14097;DHT22;7125;48.106;11.544;2023-05-02T11:14:47;14.20;99.90
14097;DHT22;7125;48.106;11.544;2023-05-02T11:17:15;13.90;99.90
14097;DHT22;7125;48.106;11.544;2023-05-02T11:22:59;12.90;99.90
14097;DHT22;7125;48.106;11.544;2023-05-02T11:25:47;12.40;99.90
14097;DHT22;7125;48.106;11.544;2023-05-02T11:28:53;12.10;99.90
14097;DHT22;7125;48.106;11.544;2023-05-02T11:34:42;11.60;99.90
14097;DHT22;7125;48.106;11.544;2023-05-02T11:37:13;11.50;99.90
14097;DHT22;7125;48.106;11.544;2023-05-02T11:39:41;11.40;99.90
14097;DHT22;7125;48.106;11.544;2023-05-02T11:42:08;11.20;99.90
14097;DHT22;7125;48.106;11.544;2023-05-02T11:44:57;11.10;99.90
14097;DHT22;7125;48.106;11.544;2023-05-02T11:47:25;11.00;99.90
14097;DHT22;7125;48.106;11.544;2023-05-02T11:49:54;10.90;99.90
14097;DHT22;7125;48.106;11.544;2023-05-02T11:52:22;10.80;99.90
14097;DHT22;7125;48.106;11.544;2023-05-02T11:54:53;10.70;99.90
14097;DHT22;7125;48.106;11.544;2023-05-02T11:57:21;10.70;99.90
14097;DHT22;7125;48.106;11.544;2023-05-02T11:59:49;10.70;99.90
14097;DHT22;7125;48.106;11.544;2023-05-02T12:02:18;10.80;99.90
14097;DHT22;7125;48.106;11.544;2023-05-02T12:04:45;10.90;99.90
14097;DHT22;7125;48.106;11.544;2023-05-02T12:07:12;11.00;99.90
14097;DHT22;7125;48.106;11.544;2023-05-02T12:09:52;11.10;99.90
14097;DHT22;7125;48.106;11.544;2023-05-02T12:12:20;11.10;99.90
14097;DHT22;7125;48.106;11.544;2023-05-02T12:14:47;11.20;99.90
14097;DHT22;7125;48.106;11.544;2023-05-02T12:17:14;11.20;99.90
14097;DHT22;7125;48.106;11.544;2023-05-02T12:19:43;11.30;99.90
14097;DHT22;7125;48.106;11.544;2023-05-02T12:22:11;11.40;99.90
14097;DHT22;7125;48.106;11.544;2023-05-02T12:24:39;11.40;99.90
14097;DHT22;7125;48.106;11.544;2023-05-02T12:27:09;11.40;99.90
14097;DHT22;7125;48.106;11.544;2023-05-02T12:29:38;11.40;99.90
14097;DHT22;7125;48.106;11.544;2023-05-02T12:32:05;11.50;99.90
14097;DHT22;7125;48.106;11.544;2023-05-02T12:34:32;11.50;99.90
14097;DHT22;7125;48.106;11.544;2023-05-02T12:37:01;11.60;99.90
14097;DHT22;7125;48.106;11.544;2023-05-02T12:39:35;11.70;99.90
14097;DHT22;7125;48.106;11.544;2023-05-02T12:42:09;11.90;99.90
14097;DHT22;7125;48.106;11.544;2023-05-02T12:44:37;12.10;99.90
14097;DHT22;7125;48.106;11.544;2023-05-02T12:47:04;12.20;99.90
14097;DHT22;7125;48.106;11.544;2023-05-02T12:49:32;12.30;99.90
14097;DHT22;7125;48.106;11.544;2023-05-02T12:52:00;12.30;99.90
14097;DHT22;7125;48.106;11.544;2023-05-02T12:54:27;12.50;99.90
14097;DHT22;7125;48.106;11.544;2023-05-02T12:56:54;12.70;99.90
14097;DHT22;7125;48.106;11.544;2023-05-02T12:59:26;12.90;99.90
14097;DHT22;7125;48.106;11.544;2023-05-02T13:01:53;13.00;99.90
14097;DHT22;7125;48.106;11.544;2023-05-02T13:04:20;13.10;99.90
14097;DHT22;7125;48.106;11.544;2023-05-02T13:06:47;13.30;99.90
14097;DHT22;7125;48.106;11.544;2023-05-02T13:09:15;13.60;99.90
14097;DHT22;7125;48.106;11.544;2023-05-02T13:11:43;13.80;99.90
14097;DHT22;7125;48.106;11.544;2023-05-02T13:14:11;14.00;99.90
14097;DHT22;7125;48.106;11.544;2023-05-02T13:16:38;14.20;99.90
14097;DHT22;7125;48.106;11.544;2023-05-02T13:19:05;14.30;99.90
14097;DHT22;7125;48.106;11.544;2023-05-02T13:21:33;14.30;99.90
14097;DHT22;7125;48.106;11.544;2023-05-02T13:23:59;14.30;99.90
14097;DHT22;7125;48.106;11.544;2023-05-02T13:26:30;14.20;99.90
14097;DHT22;7125;48.106;11.544;2023-05-02T13:28:56;14.20;99.90
14097;DHT22;7125;48.106;11.544;2023-05-02T13:31:23;14.00;99.90
14097;DHT22;7125;48.106;11.544;2023-05-02T13:33:50;13.90;99.90
14097;DHT22;7125;48.106;11.544;2023-05-02T13:36:18;13.90;99.90
14097;DHT22;7125;48.106;11.544;2023-05-02T13:38:46;13.90;99.90
14097;DHT22;7125;48.106;11.544;2023-05-02T13:41:12;13.80;99.90
14097;DHT22;7125;48.106;11.544;2023-05-02T13:43:41;13.80;99.90
14097;DHT22;7125;48.106;11.544;2023-05-02T13:46:08;13.90;99.90
14097;DHT22;7125;48.106;11.544;2023-05-02T13:48:35;13.90;99.90
14097;DHT22;7125;48.106;11.544;2023-05-02T13:51:02;13.90;99.90
14097;DHT22;7125;48.106;11.544;2023-05-02T13:53:29;13.90;99.90
14097;DHT22;7125;48.106;11.544;2023-05-02T13:55:56;14.00;99.90
14097;DHT22;7125;48.106;11.544;2023-05-02T13:58:25;14.00;99.90
14097;DHT22;7125;48.106;11.544;2023-05-02T14:00:53;14.00;99.90
14097;DHT22;7125;48.106;11.544;2023-05-02T14:03:21;14.00;99.90
14097;DHT22;7125;48.106;11.544;2023-05-02T14:05:48;14.00;99.90
14097;DHT22;7125;48.106;11.544;2023-05-02T14:08:15;14.00;99.90
14097;DHT22;7125;48.106;11.544;2023-05-02T14:10:44;13.90;99.90
14097;DHT22;7125;48.106;11.544;2023-05-02T14:13:11;13.80;99.90
14097;DHT22;7125;48.106;11.544;2023-05-02T14:15:38;13.80;99.90
14097;DHT22;7125;48.106;11.544;2023-05-02T14:18:06;13.80;99.90
14097;DHT22;7125;48.106;11.544;2023-05-02T14:20:33;13.70;99.90
14097;DHT22;7125;48.106;11.544;2023-05-02T14:23:00;13.70;99.90
14097;DHT22;7125;48.106;11.544;2023-05-02T14:25:30;13.60;99.90
14097;DHT22;7125;48.106;11.544;2023-05-02T14:27:57;13.30;99.90
14097;DHT22;7125;48.106;11.544;2023-05-02T14:30:25;13.10;99.90
14097;DHT22;7125;48.106;11.544;2023-05-02T14:32:52;12.80;99.90
14097;DHT22;7125;48.106;11.544;2023-05-02T14:35:20;12.60;99.90
14097;DHT22;7125;48.106;11.544;2023-05-02T14:37:48;12.40;99.90
14097;DHT22;7125;48.106;11.544;2023-05-02T14:40:15;12.30;99.90
14097;DHT22;7125;48.106;11.544;2023-05-02T14:42:43;12.10;99.90
14097;DHT22;7125;48.106;11.544;2023-05-02T14:45:10;12.10;99.90
14097;DHT22;7125;48.106;11.544;2023-05-02T14:47:37;12.00;99.90
14097;DHT22;7125;48.106;11.544;2023-05-02T14:50:06;12.00;99.90
14097;DHT22;7125;48.106;11.544;2023-05-02T14:52:34;12.00;99.90
14097;DHT22;7125;48.106;11.544;2023-05-02T14:55:02;12.00;99.90
14097;DHT22;7125;48.106;11.544;2023-05-02T14:57:29;12.00;99.90
14097;DHT22;7125;48.106;11.544;2023-05-02T14:59:56;12.00;99.90
14097;DHT22;7125;48.106;11.544;2023-05-02T15:02:23;12.00;99.90
14097;DHT22;7125;48.106;11.544;2023-05-02T15:04:50;12.00;99.90
14097;DHT22;7125;48.106;11.544;2023-05-02T15:07:17;12.10;99.90
14097;DHT22;7125;48.106;11.544;2023-05-02T15:09:46;12.40;99.90
14097;DHT22;7125;48.106;11.544;2023-05-02T15:12:13;12.80;99.90
14097;DHT22;7125;48.106;11.544;2023-05-02T15:14:40;12.90;99.90
14097;DHT22;7125;48.106;11.544;2023-05-02T15:17:07;13.00;99.90
14097;DHT22;7125;48.106;11.544;2023-05-02T15:19:37;13.20;99.90
14097;DHT22;7125;48.106;11.544;2023-05-02T15:22:04;13.20;99.90
14097;DHT22;7125;48.106;11.544;2023-05-02T15:24:31;13.20;99.90
14097;DHT22;7125;48.106;11.544;2023-05-02T15:27:00;13.10;99.90
14097;DHT22;7125;48.106;11.544;2023-05-02T15:29:28;13.00;99.90
14097;DHT22;7125;48.106;11.544;2023-05-02T15:31:55;12.90;99.90
14097;DHT22;7125;48.106;11.544;2023-05-02T15:34:21;12.90;99.90
14097;DHT22;7125;48.106;11.544;2023-05-02T15:36:48;13.00;99.90
14097;DHT22;7125;48.106;11.544;2023-05-02T15:39:16;13.10;99.90
14097;DHT22;7125;48.106;11.544;2023-05-02T15:41:44;13.10;99.90
14097;DHT22;7125;48.106;11.544;2023-05-02T15:44:13;13.20;99.90
14097;DHT22;7125;48.106;11.544;2023-05-02T15:46:40;13.10;99.90
14097;DHT22;7125;48.106;11.544;2023-05-02T15:49:11;13.20;99.90
14097;DHT22;7125;48.106;11.544;2023-05-02T15:51:40;13.30;99.90
14097;DHT22;7125;48.106;11.544;2023-05-02T15:54:08;13.50;99.90
14097;DHT22;7125;48.106;11.544;2023-05-02T15:56:35;13.80;99.90